Time;durP1;ratioP1;P1;durP2;ratioP2;P2;SDS_P1;SDS_P2;PMS_P1;PMS_P2;Temp;Humidity;BMP_temperature;BMP_pressure;BME280_temperature;BME280_humidity;BME280_pressure;Samples;Min_cycle;Max_cycle;Signal;HPM_P1;HPM_P2
2021/05/12 00:01:53;;;;;;;3.73;2.80;;;15.60;99.90;;;;;;5054490;28;20550;-51
2021/05/12 00:04:18;;;;;;;3.70;2.90;;;15.70;99.90;;;;;;5054918;28;20656;-52
2021/05/12 00:06:44;;;;;;;3.10;2.80;;;15.40;99.90;;;;;;5054886;28;20198;-51
2021/05/12 00:09:10;;;;;;;3.40;3.10;;;15.30;99.90;;;;;;5055071;28;20604;-54
2021/05/12 00:11:35;;;;;;;3.40;3.10;;;15.50;99.90;;;;;;5054689;28;20182;-49
2021/05/12 00:14:01;;;;;;;3.50;3.10;;;15.30;99.90;;;;;;5054434;28;20222;-47
2021/05/12 00:16:26;;;;;;;3.53;3.23;;;15.40;99.90;;;;;;5054478;28;20205;-56
2021/05/12 00:18:52;;;;;;;3.77;3.47;;;15.40;99.90;;;;;;5054676;28;20296;-49
2021/05/12 00:21:31;;;;;;;3.90;3.47;;;15.40;99.90;;;;;;5054392;28;20699;-52
2021/05/12 00:23:59;;;;;;;4.13;3.20;;;15.40;99.90;;;;;;5054464;28;20538;-54
2021/05/12 00:26:27;;;;;;;3.60;3.30;;;15.40;99.90;;;;;;5054237;28;20651;-49
2021/05/12 00:28:53;;;;;;;4.17;3.80;;;15.40;99.90;;;;;;5054515;28;20182;-51
2021/05/12 00:31:18;;;;;;;4.57;3.87;;;15.40;99.90;;;;;;5053984;28;20185;-50
2021/05/12 00:33:44;;;;;;;4.57;3.93;;;15.30;99.90;;;;;;5054431;28;20178;-48
2021/05/12 00:36:09;;;;;;;4.63;4.10;;;15.20;99.90;;;;;;5054303;28;20209;-49
2021/05/12 00:38:35;;;;;;;4.47;4.07;;;15.20;99.90;;;;;;5053966;28;20208;-49
2021/05/12 00:41:03;;;;;;;3.93;3.63;;;15.10;99.90;;;;;;5053676;28;20207;-49
2021/05/12 00:43:29;;;;;;;4.40;4.00;;;15.00;99.90;;;;;;5054243;28;20207;-47
2021/05/12 00:45:54;;;;;;;4.40;4.00;;;14.80;99.90;;;;;;5054128;28;20198;-48
2021/05/12 00:48:20;;;;;;;3.60;3.30;;;14.70;99.90;;;;;;5054255;28;20173;-51
2021/05/12 00:50:45;;;;;;;3.70;3.40;;;14.60;99.90;;;;;;5054360;28;20534;-55
2021/05/12 00:53:11;;;;;;;3.40;3.03;;;14.50;99.90;;;;;;5054293;28;20501;-50
2021/05/12 00:55:36;;;;;;;3.90;3.60;;;14.50;99.90;;;;;;5053818;28;20185;-49
2021/05/12 00:58:02;;;;;;;3.37;3.07;;;14.50;99.90;;;;;;5054350;28;20208;-51
2021/05/12 01:00:30;;;;;;;3.50;3.20;;;14.50;99.90;;;;;;5054033;28;20212;-48
2021/05/12 01:02:56;;;;;;;3.10;2.90;;;14.40;99.90;;;;;;5053982;28;20532;-52
2021/05/12 01:05:59;;;;;;;3.33;3.10;;;14.30;99.90;;;;;;5054346;28;20608;-51
2021/05/12 01:08:24;;;;;;;3.50;3.20;;;14.10;99.90;;;;;;5054957;28;20180;-53
2021/05/12 01:10:50;;;;;;;3.20;2.90;;;14.00;99.90;;;;;;5053959;28;20229;-48
2021/05/12 01:13:15;;;;;;;3.07;2.73;;;14.00;99.90;;;;;;5053623;28;20191;-52
2021/05/12 01:15:42;;;;;;;2.80;2.60;;;14.10;99.90;;;;;;5053869;28;20524;-47
2021/05/12 01:18:13;;;;;;;2.80;2.60;;;14.10;99.90;;;;;;5053806;28;20554;-47
2021/05/12 01:20:58;;;;;;;2.57;2.37;;;14.10;99.90;;;;;;5053390;28;20212;-53
2021/05/12 01:23:26;;;;;;;2.77;2.57;;;14.10;99.90;;;;;;5053961;28;20186;-48
2021/05/12 01:25:53;;;;;;;2.73;2.53;;;14.00;99.90;;;;;;5053750;28;20177;-54
2021/05/12 01:28:21;;;;;;;3.17;2.97;;;14.00;99.90;;;;;;5053681;28;20178;-48
2021/05/12 01:31:11;;;;;;;2.70;2.50;;;13.90;99.90;;;;;;5053939;28;20175;-53
2021/05/12 01:33:37;;;;;;;2.63;2.40;;;13.90;99.90;;;;;;5053393;28;20187;-48
2021/05/12 01:36:05;;;;;;;2.10;2.00;;;13.90;99.90;;;;;;5053585;28;20287;-54
2021/05/12 01:38:31;;;;;;;2.30;2.10;;;13.80;99.90;;;;;;5053666;28;20190;-50
2021/05/12 01:40:56;;;;;;;2.10;2.00;;;13.80;99.90;;;;;;5053686;28;20260;-53
2021/05/12 01:43:22;;;;;;;6.27;2.20;;;13.70;99.90;;;;;;5053475;28;20192;-51
2021/05/12 01:45:49;;;;;;;2.40;2.20;;;13.60;99.90;;;;;;5053611;28;20198;-50
2021/05/12 01:48:16;;;;;;;2.10;2.00;;;13.50;99.90;;;;;;5053617;28;20183;-51
2021/05/12 01:50:41;;;;;;;3.90;2.20;;;13.40;99.90;;;;;;5054516;28;20194;-50
2021/05/12 01:53:08;;;;;;;2.33;2.10;;;13.40;99.90;;;;;;5056921;28;20540;-50
2021/05/12 01:55:34;;;;;;;2.30;2.10;;;13.40;99.90;;;;;;5057705;28;20179;-51
2021/05/12 01:58:00;;;;;;;2.27;2.10;;;13.30;99.90;;;;;;5057711;28;20186;-55
2021/05/12 02:00:28;;;;;;;2.73;2.27;;;13.30;99.90;;;;;;5056966;28;20210;-51
2021/05/12 02:02:54;;;;;;;2.77;2.10;;;13.40;99.90;;;;;;5057139;28;20182;-50
2021/05/12 02:05:22;;;;;;;2.07;1.87;;;13.40;99.90;;;;;;5057325;28;20171;-47
2021/05/12 02:07:50;;;;;;;2.27;2.07;;;13.40;99.90;;;;;;5057360;28;20187;-50
2021/05/12 02:10:16;;;;;;;2.00;1.90;;;13.50;99.90;;;;;;5057353;28;20507;-53
2021/05/12 02:12:42;;;;;;;1.93;1.83;;;13.40;99.90;;;;;;5056656;28;20623;-48
2021/05/12 02:15:10;;;;;;;3.43;2.20;;;13.30;99.90;;;;;;5056709;28;20213;-54
2021/05/12 02:17:36;;;;;;;1.90;1.80;;;13.40;99.90;;;;;;5056866;28;20233;-49
2021/05/12 02:20:04;;;;;;;2.20;2.00;;;13.40;99.90;;;;;;5057116;28;20168;-50
2021/05/12 02:22:29;;;;;;;2.13;1.80;;;13.30;99.90;;;;;;5056575;28;20213;-50
2021/05/12 02:24:55;;;;;;;2.97;2.00;;;13.20;99.90;;;;;;5056909;28;20179;-52
2021/05/12 02:27:20;;;;;;;2.87;2.10;;;13.10;99.90;;;;;;5056641;28;20218;-47
2021/05/12 02:29:46;;;;;;;1.80;1.70;;;13.10;99.90;;;;;;5056828;28;20167;-49
2021/05/12 02:32:11;;;;;;;2.80;2.10;;;13.10;99.90;;;;;;5056505;28;20225;-50
2021/05/12 02:34:37;;;;;;;2.80;2.10;;;13.00;99.90;;;;;;5056491;28;20627;-48
2021/05/12 02:37:02;;;;;;;3.33;2.00;;;12.90;99.90;;;;;;5056274;28;20611;-48
2021/05/12 02:39:29;;;;;;;1.90;1.80;;;15.20;99.90;;;;;;5056939;28;20190;-49
2021/05/12 02:41:56;;;;;;;2.47;2.20;;;12.90;99.90;;;;;;5056278;28;20211;-53
2021/05/12 02:44:22;;;;;;;5.27;2.40;;;12.90;99.90;;;;;;5056357;28;20181;-49
2021/05/12 02:46:47;;;;;;;2.40;2.20;;;12.80;99.90;;;;;;5056400;28;20623;-52
2021/05/12 02:49:13;;;;;;;3.60;2.70;;;12.80;99.90;;;;;;5056102;28;20181;-54
2021/05/12 02:51:40;;;;;;;2.73;2.50;;;12.70;99.90;;;;;;5056078;28;20577;-49
2021/05/12 02:54:05;;;;;;;2.60;2.40;;;12.60;99.90;;;;;;5056547;28;20179;-49
2021/05/12 02:56:31;;;;;;;2.83;2.47;;;12.60;99.90;;;;;;5055980;28;20202;-51
2021/05/12 02:58:57;;;;;;;2.57;2.37;;;12.70;99.90;;;;;;5056105;28;20187;-50
2021/05/12 03:01:22;;;;;;;4.07;2.50;;;12.70;99.90;;;;;;5055728;28;20206;-54
2021/05/12 03:03:48;;;;;;;2.67;2.47;;;12.90;99.90;;;;;;5055159;28;20519;-54
2021/05/12 03:06:13;;;;;;;2.77;2.50;;;12.70;99.90;;;;;;5056104;28;20631;-54
2021/05/12 03:08:39;;;;;;;2.30;2.20;;;12.70;99.90;;;;;;5056325;28;20179;-51
2021/05/12 03:11:04;;;;;;;2.27;2.17;;;12.70;99.90;;;;;;5055704;28;20192;-52
2021/05/12 03:13:30;;;;;;;2.30;2.10;;;12.60;99.90;;;;;;5055777;28;20179;-53
2021/05/12 03:15:55;;;;;;;2.37;2.17;;;12.50;99.90;;;;;;5055785;28;20199;-48
2021/05/12 03:18:21;;;;;;;2.47;2.27;;;12.50;99.90;;;;;;5055506;28;20179;-50
2021/05/12 03:20:47;;;;;;;2.33;2.00;;;12.50;99.90;;;;;;5055948;28;20206;-52
2021/05/12 03:23:12;;;;;;;1.70;1.60;;;12.50;99.90;;;;;;5055945;28;20563;-56
2021/05/12 03:25:38;;;;;;;1.87;1.70;;;12.50;99.90;;;;;;5055859;28;20190;-47
2021/05/12 03:28:04;;;;;;;1.17;1.00;;;12.40;99.90;;;;;;5055553;28;20176;-48
2021/05/12 03:30:33;;;;;;;0.97;0.90;;;12.40;99.90;;;;;;5055615;28;20628;-48
2021/05/12 03:33:00;;;;;;;0.70;0.70;;;12.30;99.90;;;;;;5055497;28;20196;-47
2021/05/12 03:35:26;;;;;;;1.00;0.90;;;12.30;99.90;;;;;;5055781;28;20275;-54
2021/05/12 03:37:52;;;;;;;1.80;0.83;;;12.20;99.90;;;;;;5055049;28;20552;-55
2021/05/12 03:40:18;;;;;;;1.70;0.80;;;12.10;99.90;;;;;;5055480;28;20627;-54
2021/05/12 03:42:45;;;;;;;0.57;0.57;;;12.10;99.90;;;;;;5055097;28;20619;-48
2021/05/12 03:45:11;;;;;;;0.70;0.47;;;12.10;99.90;;;;;;5055461;28;20175;-49
2021/05/12 03:47:37;;;;;;;1.90;0.63;;;12.00;99.90;;;;;;5055240;28;20202;-47
2021/05/12 03:50:05;;;;;;;0.90;0.50;;;12.00;99.90;;;;;;5055403;28;20183;-52
2021/05/12 03:52:30;;;;;;;1.70;0.50;;;12.00;99.90;;;;;;5055426;28;20183;-52
2021/05/12 03:54:56;;;;;;;0.60;0.60;;;12.00;99.90;;;;;;5055057;28;20501;-56
2021/05/12 03:57:22;;;;;;;0.50;0.40;;;12.00;99.90;;;;;;5054931;28;20191;-52
2021/05/12 03:59:47;;;;;;;1.07;0.53;;;12.00;99.90;;;;;;5055092;28;20175;-49
2021/05/12 04:02:13;;;;;;;0.50;0.50;;;11.90;99.90;;;;;;5054441;28;20246;-50
2021/05/12 04:04:38;;;;;;;0.73;0.73;;;11.90;99.90;;;;;;5055194;28;20500;-49
2021/05/12 04:07:04;;;;;;;0.73;0.57;;;11.90;99.90;;;;;;5036703;28;20616;-48
2021/05/12 04:09:30;;;;;;;0.40;0.40;;;13.10;99.90;;;;;;5054643;28;20622;-51
2021/05/12 04:11:56;;;;;;;0.50;0.50;;;11.90;99.90;;;;;;5054469;28;20237;-55
2021/05/12 04:14:21;;;;;;;0.53;0.40;;;11.90;99.90;;;;;;5054212;28;20191;-51
2021/05/12 04:16:48;;;;;;;0.80;0.57;;;11.90;99.90;;;;;;5054816;28;20206;-51
2021/05/12 04:19:14;;;;;;;0.60;0.60;;;11.90;99.90;;;;;;5055110;28;20179;-50
2021/05/12 04:21:40;;;;;;;0.67;0.67;;;11.90;99.90;;;;;;5054507;28;20207;-48
2021/05/12 04:24:06;;;;;;;1.37;0.57;;;11.90;99.90;;;;;;5054545;28;20255;-54
2021/05/12 04:26:31;;;;;;;0.77;0.77;;;11.90;99.90;;;;;;5054567;28;20243;-51
2021/05/12 04:28:57;;;;;;;0.67;0.60;;;11.80;99.90;;;;;;5054579;28;20178;-53
2021/05/12 04:31:23;;;;;;;0.63;0.60;;;11.80;99.90;;;;;;5054229;28;20179;-56
2021/05/12 04:33:49;;;;;;;0.67;0.60;;;11.80;99.90;;;;;;5054747;28;20179;-48
2021/05/12 04:36:14;;;;;;;0.60;0.60;;;11.80;99.90;;;;;;5054561;28;20287;-48
2021/05/12 04:38:40;;;;;;;0.70;0.70;;;11.80;99.90;;;;;;5054058;28;20627;-47
2021/05/12 04:41:05;;;;;;;0.90;0.67;;;11.80;99.90;;;;;;5053934;28;20685;-48
2021/05/12 04:43:32;;;;;;;0.70;0.70;;;11.80;99.90;;;;;;5054296;28;20171;-51
2021/05/12 04:45:57;;;;;;;0.83;0.57;;;11.80;99.90;;;;;;5054003;28;20327;-55
2021/05/12 04:48:23;;;;;;;0.50;0.50;;;11.70;99.90;;;;;;5054192;28;20619;-50
2021/05/12 04:50:48;;;;;;;0.50;0.50;;;11.60;99.90;;;;;;5054284;28;20175;-48
2021/05/12 04:53:14;;;;;;;1.37;0.60;;;11.70;99.90;;;;;;5053729;28;20182;-48
2021/05/12 04:55:39;;;;;;;1.37;0.87;;;11.70;99.90;;;;;;5053911;28;20687;-47
2021/05/12 04:58:06;;;;;;;1.23;0.80;;;11.70;99.90;;;;;;5056271;28;20660;-49
2021/05/12 05:00:31;;;;;;;0.60;0.60;;;11.80;99.90;;;;;;5045209;28;20213;-52
2021/05/12 05:02:58;;;;;;;0.70;0.70;;;11.80;99.90;;;;;;5072137;28;20178;-53
2021/05/12 05:05:25;;;;;;;2.93;0.70;;;11.80;99.90;;;;;;5068533;28;20183;-54
2021/05/12 05:07:50;;;;;;;1.00;0.60;;;11.80;99.90;;;;;;5073840;28;20257;-48
2021/05/12 05:10:17;;;;;;;0.63;0.63;;;11.70;99.90;;;;;;5071160;28;20703;-49
2021/05/12 05:12:43;;;;;;;0.93;0.63;;;11.70;99.90;;;;;;5073680;28;20630;-47
2021/05/12 05:15:09;;;;;;;0.47;0.47;;;11.60;99.90;;;;;;5060744;28;20174;-50
2021/05/12 05:17:35;;;;;;;2.80;0.80;;;11.60;99.90;;;;;;5054301;28;20191;-46
2021/05/12 05:20:01;;;;;;;1.00;0.60;;;11.60;99.90;;;;;;5065334;28;20246;-52
2021/05/12 05:22:28;;;;;;;0.93;0.67;;;11.70;99.90;;;;;;5053565;28;20764;-46
2021/05/12 05:24:55;;;;;;;1.23;0.50;;;11.70;99.90;;;;;;5053481;28;20229;-50
2021/05/12 05:27:22;;;;;;;1.03;0.43;;;11.70;99.90;;;;;;5058047;28;20207;-49
2021/05/12 05:29:49;;;;;;;1.20;0.80;;;11.80;99.90;;;;;;5057509;28;20218;-48
2021/05/12 05:32:14;;;;;;;1.57;0.90;;;11.70;99.90;;;;;;5064290;28;20248;-48
2021/05/12 05:34:40;;;;;;;1.37;0.70;;;11.70;99.90;;;;;;5076739;28;20182;-51
2021/05/12 05:37:07;;;;;;;0.73;0.73;;;11.70;99.90;;;;;;5070018;28;20214;-52
2021/05/12 05:39:36;;;;;;;1.70;0.70;;;11.80;99.90;;;;;;5058414;28;20270;-47
2021/05/12 05:42:06;;;;;;;0.50;0.50;;;11.80;99.90;;;;;;5068072;28;20206;-50
2021/05/12 05:44:32;;;;;;;0.70;0.70;;;11.70;99.90;;;;;;5064827;28;20190;-46
2021/05/12 05:46:59;;;;;;;0.80;0.80;;;11.80;99.90;;;;;;5077384;28;20236;-49
2021/05/12 05:49:24;;;;;;;1.10;0.43;;;11.80;99.90;;;;;;5096441;28;20315;-50
2021/05/12 05:51:52;;;;;;;2.60;0.60;;;11.80;99.90;;;;;;5094533;28;20261;-50
2021/05/12 05:54:17;;;;;;;0.57;0.57;;;11.70;99.90;;;;;;5076499;28;20406;-48
2021/05/12 05:56:43;;;;;;;0.50;0.50;;;11.70;99.90;;;;;;5074392;28;20201;-49
2021/05/12 05:59:08;;;;;;;1.23;0.60;;;11.70;99.90;;;;;;5077420;28;20185;-51
2021/05/12 06:01:34;;;;;;;0.60;0.50;;;11.60;99.90;;;;;;5065135;28;20582;-50
2021/05/12 06:04:00;;;;;;;0.77;0.70;;;11.60;99.90;;;;;;5056253;28;20180;-49
2021/05/12 06:06:25;;;;;;;0.70;0.70;;;11.60;99.90;;;;;;5055858;28;20199;-48
2021/05/12 06:08:52;;;;;;;0.60;0.60;;;11.50;99.90;;;;;;5057091;28;20171;-49
2021/05/12 06:11:18;;;;;;;0.77;0.50;;;11.70;99.90;;;;;;5056843;28;20235;-46
2021/05/12 06:13:44;;;;;;;0.50;0.50;;;11.70;99.90;;;;;;5056384;28;20175;-55
2021/05/12 06:16:10;;;;;;;0.53;0.53;;;11.80;99.90;;;;;;5056407;28;20753;-46
2021/05/12 06:18:35;;;;;;;0.70;0.70;;;11.80;99.90;;;;;;5056673;28;20246;-50
2021/05/12 06:21:01;;;;;;;0.73;0.73;;;11.80;99.90;;;;;;5056595;28;20203;-46
2021/05/12 06:23:26;;;;;;;1.43;0.80;;;11.80;99.90;;;;;;5057005;28;20183;-50
2021/05/12 06:25:52;;;;;;;0.70;0.70;;;11.80;99.90;;;;;;5056897;28;20574;-55
2021/05/12 06:28:19;;;;;;;0.90;0.80;;;11.70;99.90;;;;;;5057530;28;20175;-50
2021/05/12 06:30:50;;;;;;;2.83;0.90;;;11.70;99.90;;;;;;5057371;28;20183;-55
2021/05/12 06:33:17;;;;;;;1.63;0.70;;;11.70;99.90;;;;;;5056630;28;20221;-48
2021/05/12 06:35:43;;;;;;;0.70;0.70;;;11.80;99.90;;;;;;5056643;28;20167;-45
2021/05/12 06:38:09;;;;;;;0.70;0.60;;;11.70;99.90;;;;;;5056646;28;20527;-48
2021/05/12 06:40:36;;;;;;;0.73;0.70;;;11.60;99.90;;;;;;5055144;28;20666;-53
2021/05/12 06:43:02;;;;;;;0.90;0.60;;;11.70;99.90;;;;;;5056024;28;20182;-49
2021/05/12 06:45:28;;;;;;;0.60;0.60;;;11.80;99.90;;;;;;5055767;28;20171;-50
2021/05/12 06:47:54;;;;;;;0.60;0.60;;;11.80;99.90;;;;;;5055628;28;20195;-56
2021/05/12 06:50:20;;;;;;;2.00;0.60;;;11.80;99.90;;;;;;5056405;28;20217;-49
2021/05/12 06:52:57;;;;;;;0.67;0.63;;;11.90;99.90;;;;;;5056161;28;20172;-50
2021/05/12 06:55:24;;;;;;;0.70;0.70;;;11.80;99.90;;;;;;5056197;28;20171;-45
2021/05/12 06:57:50;;;;;;;0.70;0.70;;;11.80;99.90;;;;;;5055865;28;20191;-53
2021/05/12 07:00:17;;;;;;;0.60;0.60;;;11.80;99.90;;;;;;5055934;28;20174;-52
2021/05/12 07:02:43;;;;;;;0.83;0.70;;;11.90;99.90;;;;;;5055662;28;20175;-46
2021/05/12 07:05:14;;;;;;;0.70;0.60;;;11.90;99.90;;;;;;5055542;28;20505;-49
2021/05/12 07:07:39;;;;;;;1.73;0.60;;;11.80;99.90;;;;;;5056193;28;20191;-48
2021/05/12 07:10:05;;;;;;;2.00;0.40;;;11.70;99.90;;;;;;5055809;28;20171;-50
2021/05/12 07:12:32;;;;;;;1.30;0.67;;;11.70;99.90;;;;;;5055167;28;20183;-46
2021/05/12 07:14:58;;;;;;;0.80;0.80;;;11.70;99.90;;;;;;5055867;28;20167;-46
2021/05/12 07:17:23;;;;;;;0.50;0.50;;;11.70;99.90;;;;;;5055664;28;20539;-52
2021/05/12 07:19:49;;;;;;;0.40;0.40;;;11.70;99.90;;;;;;5037933;28;20171;-55
2021/05/12 07:22:14;;;;;;;1.50;0.67;;;11.70;99.90;;;;;;5069929;28;20202;-47
2021/05/12 07:24:40;;;;;;;0.67;0.57;;;11.70;99.90;;;;;;5077162;28;20198;-46
2021/05/12 07:27:05;;;;;;;1.70;0.50;;;11.70;99.90;;;;;;5071782;28;20217;-51
2021/05/12 07:29:31;;;;;;;1.47;0.80;;;11.80;99.90;;;;;;5068950;28;20233;-49
2021/05/12 07:31:56;;;;;;;0.80;0.57;;;11.70;99.90;;;;;;5072392;28;20201;-50
2021/05/12 07:34:22;;;;;;;1.40;0.40;;;11.80;99.90;;;;;;5073406;28;20182;-55
2021/05/12 07:36:48;;;;;;;0.60;0.60;;;11.80;99.90;;;;;;5075163;28;20289;-54
2021/05/12 07:39:19;;;;;;;0.50;0.50;;;11.80;99.90;;;;;;5070031;28;20578;-51
2021/05/12 07:41:45;;;;;;;0.70;0.70;;;11.80;99.90;;;;;;5051745;28;20669;-50
2021/05/12 07:44:10;;;;;;;0.90;0.83;;;11.90;99.90;;;;;;5070587;28;20179;-56
2021/05/12 07:46:36;;;;;;;0.93;0.80;;;11.90;99.90;;;;;;5069565;28;20278;-54
2021/05/12 07:49:02;;;;;;;0.57;0.57;;;11.80;99.90;;;;;;5066630;28;20526;-54
2021/05/12 07:51:27;;;;;;;0.60;0.60;;;11.80;99.90;;;;;;5089739;28;20201;-54
2021/05/12 07:53:53;;;;;;;0.60;0.60;;;11.80;99.90;;;;;;5079823;28;20177;-52
2021/05/12 07:56:19;;;;;;;0.60;0.60;;;11.80;99.90;;;;;;5084535;28;20198;-51
2021/05/12 07:58:45;;;;;;;0.70;0.70;;;11.80;99.90;;;;;;5075339;28;20229;-47
2021/05/12 08:01:22;;;;;;;0.87;0.70;;;11.90;99.90;;;;;;5082381;28;20288;-49
2021/05/12 08:03:47;;;;;;;0.93;0.70;;;11.80;99.90;;;;;;5085348;28;20174;-46
2021/05/12 08:06:13;;;;;;;2.20;0.70;;;11.80;99.90;;;;;;5087812;28;20201;-46
2021/05/12 08:08:39;;;;;;;0.60;0.60;;;11.90;99.90;;;;;;5078331;28;20244;-56
2021/05/12 08:11:05;;;;;;;0.60;0.60;;;11.90;99.90;;;;;;5076012;28;20169;-49
2021/05/12 08:13:32;;;;;;;0.60;0.60;;;11.90;99.90;;;;;;5078006;28;20245;-55
2021/05/12 08:15:58;;;;;;;0.50;0.50;;;11.90;99.90;;;;;;5075995;28;20681;-48
2021/05/12 08:18:23;;;;;;;0.83;0.67;;;12.00;99.90;;;;;;5089309;28;20186;-47
2021/05/12 08:20:49;;;;;;;0.70;0.70;;;12.00;99.90;;;;;;5077555;28;20602;-46
2021/05/12 08:23:15;;;;;;;0.60;0.60;;;11.90;99.90;;;;;;5088617;28;20561;-54
2021/05/12 08:25:43;;;;;;;1.17;0.60;;;11.80;99.90;;;;;;5082140;28;20178;-46
2021/05/12 08:28:09;;;;;;;0.80;0.80;;;11.90;99.90;;;;;;5065488;28;20190;-50
2021/05/12 08:30:36;;;;;;;0.53;0.53;;;11.80;99.90;;;;;;5068263;28;20548;-50
2021/05/12 08:33:03;;;;;;;2.20;0.70;;;11.80;99.90;;;;;;5067970;28;20193;-51
2021/05/12 08:35:29;;;;;;;1.27;0.60;;;14.00;99.90;;;;;;5071008;28;20171;-47
2021/05/12 08:37:55;;;;;;;0.97;0.90;;;11.90;99.90;;;;;;5073876;28;20612;-47
2021/05/12 08:40:21;;;;;;;0.70;0.70;;;11.90;99.90;;;;;;5074029;28;20634;-51
2021/05/12 08:42:49;;;;;;;0.80;0.80;;;11.90;99.90;;;;;;5073976;28;20163;-56
2021/05/12 08:45:16;;;;;;;0.70;0.70;;;12.00;99.90;;;;;;5073904;28;20515;-47
2021/05/12 08:47:44;;;;;;;0.90;0.90;;;12.00;99.90;;;;;;5073823;28;20187;-50
2021/05/12 08:50:10;;;;;;;0.70;0.70;;;12.00;99.90;;;;;;5074416;28;20178;-49
2021/05/12 08:52:37;;;;;;;0.60;0.60;;;12.00;99.90;;;;;;5073761;28;20170;-46
2021/05/12 08:55:04;;;;;;;1.03;0.70;;;12.00;99.90;;;;;;5074223;28;20210;-49
2021/05/12 08:57:29;;;;;;;0.90;0.90;;;12.00;99.90;;;;;;5074028;28;20281;-50
2021/05/12 08:59:55;;;;;;;1.23;1.00;;;12.00;99.90;;;;;;5073117;28;20278;-51
2021/05/12 09:02:21;;;;;;;1.07;1.00;;;12.00;99.90;;;;;;5073224;28;20206;-57
2021/05/12 09:04:47;;;;;;;0.70;0.70;;;12.00;99.90;;;;;;5073871;28;20232;-50
2021/05/12 09:07:13;;;;;;;0.80;0.80;;;12.10;99.90;;;;;;5073856;28;20194;-47
2021/05/12 09:09:38;;;;;;;0.90;0.90;;;12.20;99.90;;;;;;5073687;28;20500;-49
2021/05/12 09:12:04;;;;;;;1.07;1.07;;;12.30;99.90;;;;;;5073529;28;20189;-48
2021/05/12 09:14:36;;;;;;;1.00;1.00;;;12.30;99.90;;;;;;5073712;28;20273;-51
2021/05/12 09:17:02;;;;;;;1.00;1.00;;;12.30;99.90;;;;;;5074423;28;20230;-48
2021/05/12 09:19:28;;;;;;;1.20;1.10;;;12.30;99.90;;;;;;5074415;28;20190;-58
2021/05/12 09:21:56;;;;;;;0.90;0.90;;;12.30;99.90;;;;;;5073344;28;20730;-51
2021/05/12 09:24:34;;;;;;;0.83;0.83;;;12.40;99.90;;;;;;5073748;28;20178;-47
2021/05/12 09:27:22;;;;;;;1.10;1.10;;;12.30;99.90;;;;;;5074092;28;20247;-51
2021/05/12 09:29:59;;;;;;;1.33;1.03;;;12.20;99.90;;;;;;5074182;28;20649;-55
2021/05/12 09:32:40;;;;;;;1.30;1.07;;;12.20;99.90;;;;;;5073905;28;20618;-58
2021/05/12 09:35:06;;;;;;;1.00;1.00;;;12.30;99.90;;;;;;5074098;28;20225;-49
2021/05/12 09:37:45;;;;;;;1.23;1.13;;;12.30;99.90;;;;;;5073450;28;20628;-53
2021/05/12 09:40:16;;;;;;;2.33;1.13;;;12.40;99.90;;;;;;5073773;28;20206;-51
2021/05/12 09:42:43;;;;;;;0.97;0.97;;;12.40;99.90;;;;;;5073634;28;20205;-51
2021/05/12 09:45:19;;;;;;;1.07;1.07;;;12.40;99.90;;;;;;5073761;28;20178;-55
2021/05/12 09:47:48;;;;;;;1.30;1.20;;;12.30;99.90;;;;;;5073597;28;20201;-55
2021/05/12 09:50:25;;;;;;;0.97;0.97;;;12.30;99.90;;;;;;5073522;28;20176;-58
2021/05/12 09:52:56;;;;;;;0.93;0.93;;;12.30;99.90;;;;;;5073273;28;20170;-57
2021/05/12 09:55:46;;;;;;;1.07;1.00;;;12.40;99.90;;;;;;5073436;28;20185;-50
2021/05/12 09:58:17;;;;;;;1.17;1.00;;;12.40;99.90;;;;;;5073450;28;20181;-47
2021/05/12 10:00:50;;;;;;;1.10;1.10;;;12.30;99.90;;;;;;5071869;28;20218;-48
2021/05/12 10:03:21;;;;;;;1.90;0.90;;;12.30;99.90;;;;;;5073072;28;20179;-47
2021/05/12 10:06:04;;;;;;;1.20;1.10;;;12.20;99.90;;;;;;5072961;28;20182;-48
2021/05/12 10:08:32;;;;;;;1.43;0.80;;;12.20;99.90;;;;;;5072852;28;20175;-48
2021/05/12 10:11:05;;;;;;;1.10;1.10;;;12.20;99.90;;;;;;5073231;28;20273;-49
2021/05/12 10:13:33;;;;;;;0.80;0.80;;;12.30;99.90;;;;;;5077652;28;20212;-54
2021/05/12 10:15:59;;;;;;;1.27;1.17;;;12.30;99.90;;;;;;5077051;28;20198;-53
2021/05/12 10:18:24;;;;;;;0.93;0.90;;;12.30;99.90;;;;;;5077174;28;20174;-47
2021/05/12 10:20:56;;;;;;;1.03;1.03;;;12.40;99.90;;;;;;5077166;28;20776;-51
2021/05/12 10:23:22;;;;;;;1.33;1.10;;;12.40;99.90;;;;;;5077218;28;20638;-56
2021/05/12 10:25:49;;;;;;;0.90;0.80;;;12.40;99.90;;;;;;5076855;28;20634;-51
2021/05/12 10:28:15;;;;;;;0.97;0.97;;;12.40;99.90;;;;;;5077263;28;20226;-57
2021/05/12 10:30:41;;;;;;;1.00;1.00;;;12.40;99.90;;;;;;5059061;28;20175;-51
2021/05/12 10:33:11;;;;;;;1.37;1.10;;;12.40;99.90;;;;;;5076637;28;20167;-46
2021/05/12 10:35:38;;;;;;;2.03;1.10;;;12.50;99.90;;;;;;5076350;28;20626;-48
2021/05/12 10:38:05;;;;;;;0.80;0.80;;;12.60;99.90;;;;;;5076506;28;20286;-49
2021/05/12 10:40:40;;;;;;;1.00;1.00;;;12.60;99.90;;;;;;5077443;28;20167;-53
2021/05/12 10:43:27;;;;;;;0.87;0.87;;;12.70;99.90;;;;;;5078158;28;20307;-54
2021/05/12 10:48:43;;;;;;;1.17;1.10;;;12.60;99.90;;;;;;5080306;28;21064;-45
2021/05/12 10:51:31;;;;;;;1.07;1.00;;;12.70;99.90;;;;;;5087817;28;20637;-46
2021/05/12 10:54:06;;;;;;;1.30;1.30;;;12.70;99.90;;;;;;5084256;28;20190;-52
2021/05/12 10:56:41;;;;;;;1.40;1.30;;;12.80;99.90;;;;;;5074481;28;20197;-49
2021/05/12 10:59:08;;;;;;;1.50;1.40;;;12.70;99.90;;;;;;5066602;28;20647;-47
2021/05/12 11:01:35;;;;;;;1.60;1.50;;;12.80;99.90;;;;;;5065884;28;20202;-56
2021/05/12 11:04:00;;;;;;;1.53;1.43;;;12.70;99.90;;;;;;5076041;28;20185;-53
2021/05/12 11:06:48;;;;;;;1.50;1.40;;;12.80;99.90;;;;;;5065811;28;20195;-48
2021/05/12 11:09:18;;;;;;;1.67;1.57;;;12.80;99.90;;;;;;5091939;28;20176;-52
2021/05/12 11:11:44;;;;;;;1.87;1.77;;;12.80;99.90;;;;;;5079735;28;20264;-50
2021/05/12 11:14:29;;;;;;;1.80;1.70;;;12.70;99.90;;;;;;5087239;28;20262;-48
2021/05/12 11:17:11;;;;;;;1.90;1.80;;;12.70;99.90;;;;;;5066829;28;20195;-47
2021/05/12 11:19:40;;;;;;;2.30;2.20;;;12.70;99.90;;;;;;5066746;28;20542;-57
2021/05/12 11:22:46;;;;;;;2.00;1.90;;;12.70;99.90;;;;;;5065901;28;20621;-47
2021/05/12 11:33:28;;;;;;;1.70;1.60;;;12.80;99.90;;;;;;5067279;28;20197;-51
2021/05/12 11:36:03;;;;;;;2.00;1.90;;;12.70;99.90;;;;;;5042043;28;20226;-57
2021/05/12 11:38:29;;;;;;;1.70;1.60;;;12.70;99.90;;;;;;5049908;28;20198;-47
2021/05/12 11:41:11;;;;;;;3.17;1.40;;;12.80;99.90;;;;;;5066721;28;20214;-54
2021/05/12 11:44:01;;;;;;;1.53;1.43;;;12.80;99.90;;;;;;5066307;28;20760;-52
2021/05/12 11:46:40;;;;;;;2.77;1.77;;;12.80;99.90;;;;;;5066626;28;20673;-55
2021/05/12 11:49:12;;;;;;;3.33;1.90;;;12.80;99.90;;;;;;5050146;28;20167;-50
2021/05/12 11:51:42;;;;;;;2.00;1.83;;;12.80;99.90;;;;;;5046361;28;20171;-50
2021/05/12 11:54:25;;;;;;;1.70;1.60;;;12.80;99.90;;;;;;5066599;28;20181;-47
2021/05/12 11:56:59;;;;;;;1.83;1.73;;;12.80;99.90;;;;;;5065391;28;20194;-50
2021/05/12 11:59:31;;;;;;;1.57;1.47;;;12.80;99.90;;;;;;5065201;28;20553;-51
2021/05/12 12:02:10;;;;;;;1.80;1.70;;;12.80;99.90;;;;;;5062990;28;20214;-52
2021/05/12 12:07:03;;;;;;;1.80;1.70;;;12.70;99.90;;;;;;5064170;28;20194;-53
2021/05/12 12:09:29;;;;;;;2.00;1.90;;;12.70;99.90;;;;;;5063971;28;20190;-47
2021/05/12 12:11:56;;;;;;;2.13;1.87;;;12.70;99.90;;;;;;5070691;28;20676;-46
2021/05/12 12:14:35;;;;;;;2.70;1.90;;;12.70;99.90;;;;;;5075061;28;20194;-51
2021/05/12 12:17:01;;;;;;;2.20;2.00;;;12.70;99.90;;;;;;5074003;28;20194;-47
2021/05/12 12:19:27;;;;;;;2.27;2.17;;;12.80;99.90;;;;;;5073986;28;20178;-56
2021/05/12 12:21:54;;;;;;;2.10;2.00;;;12.80;99.90;;;;;;5072890;28;20324;-53
2021/05/12 12:24:23;;;;;;;3.37;2.30;;;12.80;99.90;;;;;;5073955;28;20178;-53
2021/05/12 12:26:55;;;;;;;2.40;2.20;;;12.90;99.90;;;;;;5072680;28;20198;-57
2021/05/12 12:29:42;;;;;;;2.33;2.13;;;12.90;99.90;;;;;;5056107;28;20198;-47
2021/05/12 12:32:08;;;;;;;3.13;1.90;;;12.90;99.90;;;;;;5072843;28;20775;-52
2021/05/12 12:34:36;;;;;;;2.10;1.90;;;12.90;99.90;;;;;;5074544;28;20205;-51
2021/05/12 12:37:20;;;;;;;2.40;2.20;;;12.90;99.90;;;;;;5067143;28;20210;-57
2021/05/12 12:42:32;;;;;;;2.20;2.10;;;12.80;99.90;;;;;;5054577;28;20190;-56
2021/05/12 12:45:01;;;;;;;2.50;2.30;;;12.90;99.90;;;;;;5053349;28;20586;-55
2021/05/12 12:47:27;;;;;;;2.47;2.30;;;12.90;99.90;;;;;;5054200;28;20202;-49
2021/05/12 12:50:05;;;;;;;2.67;2.47;;;13.00;99.90;;;;;;5069259;28;20549;-48
2021/05/12 12:52:31;;;;;;;2.80;2.60;;;13.10;99.90;;;;;;5074335;28;20182;-46
2021/05/12 12:55:14;;;;;;;2.50;2.37;;;13.00;99.90;;;;;;5073285;28;20585;-54
2021/05/12 12:57:43;;;;;;;2.90;2.70;;;13.00;99.90;;;;;;5074306;28;20237;-54
2021/05/12 13:00:29;;;;;;;3.93;2.73;;;13.00;99.90;;;;;;5073977;28;20268;-50
2021/05/12 13:02:54;;;;;;;2.63;2.43;;;13.00;99.90;;;;;;5073329;28;20605;-46
2021/05/12 13:05:21;;;;;;;2.50;2.30;;;12.90;99.90;;;;;;5073947;28;20170;-46
2021/05/12 13:07:48;;;;;;;2.93;2.73;;;12.90;99.90;;;;;;5073826;28;20201;-56
2021/05/12 13:10:36;;;;;;;3.00;2.80;;;12.90;99.90;;;;;;5074396;28;20189;-46